createdAt,value
2018-03-26T00:00:24.338Z,29.90
2018-03-26T00:02:51.921Z,29.40
2018-03-26T00:05:19.515Z,30.67
2018-03-26T00:07:47.134Z,29.37
2018-03-26T00:10:14.717Z,32.30
2018-03-26T00:12:42.319Z,28.40
2018-03-26T00:15:10.689Z,30.80
2018-03-26T00:17:39.080Z,30.57
2018-03-26T00:20:07.420Z,29.93
2018-03-26T00:22:35.021Z,29.23
2018-03-26T00:25:03.385Z,28.83
2018-03-26T00:27:31.775Z,30.10
2018-03-26T00:30:00.129Z,27.70
2018-03-26T00:32:27.747Z,28.90
2018-03-26T00:34:55.350Z,30.47
2018-03-26T00:37:22.940Z,30.10
2018-03-26T00:39:50.543Z,30.10
2018-03-26T00:42:18.134Z,33.30
2018-03-26T00:44:46.524Z,29.70
2018-03-26T00:47:14.883Z,31.20
2018-03-26T00:49:42.488Z,30.30
2018-03-26T00:52:10.832Z,31.90
2018-03-26T00:54:39.252Z,29.20
2018-03-26T00:57:06.838Z,28.23
2018-03-26T00:59:34.454Z,26.10
2018-03-26T01:02:02.064Z,28.20
2018-03-26T01:04:29.644Z,29.23
2018-03-26T01:06:57.252Z,28.47
2018-03-26T01:09:24.838Z,26.07
2018-03-26T01:11:52.450Z,26.83
2018-03-26T01:14:20.033Z,26.43
2018-03-26T01:16:47.631Z,27.03
2018-03-26T01:19:15.224Z,27.70
2018-03-26T01:21:42.848Z,27.40
2018-03-26T01:24:10.449Z,26.70
2018-03-26T01:26:38.048Z,24.60
2018-03-26T01:29:05.638Z,26.67
2018-03-26T01:31:33.247Z,26.13
2018-03-26T01:34:00.843Z,24.87
2018-03-26T01:36:28.439Z,24.67
2018-03-26T01:38:56.044Z,26.07
2018-03-26T01:41:23.624Z,26.43
2018-03-26T01:43:51.239Z,24.87
2018-03-26T01:46:18.816Z,24.17
2018-03-26T01:48:46.437Z,23.13
2018-03-26T01:51:14.804Z,24.30
2018-03-26T01:53:43.199Z,24.23
2018-03-26T01:56:10.780Z,23.70
2018-03-26T01:58:38.384Z,23.83
2018-03-26T02:01:05.960Z,24.57
2018-03-26T02:03:34.353Z,23.83
2018-03-26T02:06:01.943Z,22.93
2018-03-26T02:08:29.579Z,24.37
2018-03-26T02:10:57.175Z,26.90
2018-03-26T02:13:24.776Z,23.50
2018-03-26T02:15:52.407Z,22.93
2018-03-26T02:18:20.012Z,22.40
2018-03-26T02:20:47.611Z,21.80
2018-03-26T02:23:15.445Z,25.20
2018-03-26T02:25:43.073Z,25.73
2018-03-26T02:28:10.660Z,23.50
2018-03-26T02:30:38.307Z,24.00
2018-03-26T02:33:05.935Z,21.87
2018-03-26T02:35:33.548Z,25.50
2018-03-26T02:38:01.129Z,26.37
2018-03-26T02:40:28.725Z,25.03
2018-03-26T02:42:56.324Z,24.70
2018-03-26T02:45:23.936Z,25.67
2018-03-26T02:47:51.530Z,24.37
2018-03-26T02:50:19.946Z,25.17
2018-03-26T02:52:47.528Z,25.40
2018-03-26T02:55:15.129Z,24.87
2018-03-26T02:57:42.760Z,26.80
2018-03-26T03:00:10.373Z,27.10
2018-03-26T03:02:37.981Z,26.17
2018-03-26T03:05:05.560Z,29.27
2018-03-26T03:07:33.934Z,26.63
2018-03-26T03:10:01.541Z,27.23
2018-03-26T03:12:29.141Z,26.00
2018-03-26T03:14:56.727Z,26.50
2018-03-26T03:17:25.109Z,24.60
2018-03-26T03:19:53.456Z,25.33
2018-03-26T03:22:21.030Z,27.70
2018-03-26T03:24:48.687Z,25.13
2018-03-26T03:27:16.239Z,25.73
2018-03-26T03:29:43.839Z,25.70
2018-03-26T03:32:11.444Z,26.37
2018-03-26T03:34:39.049Z,26.47
2018-03-26T03:37:07.412Z,25.87
2018-03-26T03:39:35.806Z,27.77
2018-03-26T03:42:03.393Z,28.80
2018-03-26T03:44:31.600Z,32.10
2018-03-26T03:46:59.260Z,28.13
2018-03-26T03:49:26.898Z,27.63
2018-03-26T03:51:54.499Z,26.50
2018-03-26T03:54:22.867Z,27.53
2018-03-26T03:56:50.472Z,28.57
2018-03-26T03:59:18.068Z,26.23
2018-03-26T04:01:45.698Z,27.10
2018-03-26T04:04:13.297Z,27.90
2018-03-26T04:06:40.915Z,28.60
2018-03-26T04:09:08.489Z,29.43
2018-03-26T04:11:36.093Z,26.30
2018-03-26T04:14:03.696Z,30.20
2018-03-26T04:16:31.492Z,26.97
2018-03-26T04:18:59.076Z,28.83
2018-03-26T04:21:26.695Z,28.13
2018-03-26T04:23:54.291Z,26.97
2018-03-26T04:26:21.906Z,27.67
2018-03-26T04:28:49.495Z,27.70
2018-03-26T04:31:17.073Z,27.97
2018-03-26T04:33:45.463Z,27.70
2018-03-26T04:36:13.809Z,28.23
2018-03-26T04:38:41.427Z,27.77
2018-03-26T04:41:09.055Z,28.10
2018-03-26T04:43:37.451Z,26.20
2018-03-26T04:46:05.819Z,25.87
2018-03-26T04:48:34.203Z,26.23
2018-03-26T04:51:02.539Z,29.80
2018-03-26T04:53:30.140Z,30.00
2018-03-26T04:55:58.491Z,29.13
2018-03-26T04:58:26.121Z,31.17
2018-03-26T05:00:53.728Z,29.63
2018-03-26T05:03:22.132Z,33.33
2018-03-26T05:05:49.712Z,28.40
2018-03-26T05:08:17.291Z,29.20
2018-03-26T05:10:44.892Z,31.00
2018-03-26T05:13:13.264Z,30.53
2018-03-26T05:15:41.637Z,30.03
2018-03-26T05:18:10.031Z,29.47
2018-03-26T05:20:37.667Z,29.53
2018-03-26T05:23:05.266Z,29.17
2018-03-26T05:25:32.876Z,30.77
2018-03-26T05:28:00.477Z,30.17
2018-03-26T05:30:28.079Z,29.47
2018-03-26T05:32:55.652Z,28.40
2018-03-26T05:35:23.255Z,31.40
2018-03-26T05:37:50.835Z,30.43
2018-03-26T05:40:18.462Z,30.40
2018-03-26T05:42:46.808Z,29.00
2018-03-26T05:45:14.393Z,29.40
2018-03-26T05:47:42.773Z,31.20
2018-03-26T05:50:11.138Z,28.80
2018-03-26T05:52:38.740Z,26.20
2018-03-26T05:55:06.330Z,28.07
2018-03-26T05:57:33.938Z,28.77
2018-03-26T06:00:02.279Z,29.43
2018-03-26T06:02:29.904Z,27.30
2018-03-26T06:04:57.475Z,27.07
2018-03-26T06:07:25.067Z,30.60
2018-03-26T06:09:52.661Z,30.17
2018-03-26T06:12:20.277Z,29.60
2018-03-26T06:14:47.876Z,30.70
2018-03-26T06:17:16.244Z,30.37
2018-03-26T06:19:44.634Z,29.63
2018-03-26T06:22:13.001Z,29.67
2018-03-26T06:24:41.376Z,27.87
2018-03-26T06:27:09.736Z,29.63
2018-03-26T06:29:37.355Z,29.83
2018-03-26T06:32:04.982Z,28.47
2018-03-26T06:34:33.351Z,30.30
2018-03-26T06:40:05.818Z,29.50
2018-03-26T06:42:33.400Z,29.77
2018-03-26T06:45:01.792Z,28.57
2018-03-26T06:47:30.160Z,32.13
2018-03-26T06:49:58.548Z,27.50
2018-03-26T06:52:26.892Z,30.57
2018-03-26T06:54:54.489Z,31.13
2018-03-26T06:57:22.090Z,31.60
2018-03-26T06:59:49.700Z,31.30
2018-03-26T07:02:18.070Z,28.23
2018-03-26T07:04:46.416Z,30.00
2018-03-26T07:07:14.010Z,32.00
2018-03-26T07:09:42.363Z,30.30
2018-03-26T07:12:09.962Z,31.20
2018-03-26T07:14:37.559Z,29.93
2018-03-26T07:17:05.182Z,30.40
2018-03-26T07:19:32.784Z,31.13
2018-03-26T07:22:00.406Z,28.63
2018-03-26T07:24:28.011Z,30.47
2018-03-26T07:26:55.626Z,30.67
2018-03-26T07:29:23.222Z,28.97
2018-03-26T07:31:50.838Z,27.90
2018-03-26T07:34:19.209Z,27.33
2018-03-26T07:36:47.570Z,29.80
2018-03-26T07:39:15.167Z,27.13
2018-03-26T07:41:43.541Z,27.97
2018-03-26T07:44:11.163Z,29.07
2018-03-26T07:46:38.788Z,30.63
2018-03-26T07:49:06.403Z,30.57
2018-03-26T07:51:34.749Z,28.30
2018-03-26T07:54:02.446Z,28.33
2018-03-26T07:56:30.800Z,29.47
2018-03-26T07:58:58.621Z,28.23
2018-03-26T08:01:26.229Z,26.10
2018-03-26T08:03:53.844Z,24.50
2018-03-26T08:06:21.439Z,26.70
2018-03-26T08:08:49.056Z,28.27
2018-03-26T08:11:16.636Z,25.17
2018-03-26T08:13:44.337Z,29.00
2018-03-26T08:16:11.946Z,30.50
2018-03-26T08:18:39.551Z,25.33
2018-03-26T08:21:07.152Z,27.10
2018-03-26T08:23:34.729Z,28.80
2018-03-26T08:26:02.362Z,29.83
2018-03-26T08:28:29.959Z,29.70
2018-03-26T08:30:57.572Z,29.07
2018-03-26T08:33:25.171Z,29.50
2018-03-26T08:35:52.875Z,29.43
2018-03-26T08:38:20.499Z,30.90
2018-03-26T08:40:48.132Z,27.00
2018-03-26T08:43:15.735Z,28.60
2018-03-26T08:45:43.361Z,27.87
2018-03-26T08:48:10.952Z,34.23
2018-03-26T08:50:38.535Z,29.80
2018-03-26T08:53:06.916Z,26.57
2018-03-26T08:55:34.492Z,27.47
2018-03-26T08:58:02.909Z,26.80
2018-03-26T09:00:30.508Z,27.07
2018-03-26T09:02:58.108Z,26.57
2018-03-26T09:05:25.716Z,23.40
2018-03-26T09:07:53.309Z,24.33
2018-03-26T09:10:21.653Z,27.13
2018-03-26T09:12:49.272Z,26.80
2018-03-26T09:15:16.850Z,31.20
2018-03-26T09:17:44.462Z,28.27
2018-03-26T09:20:12.809Z,22.70
2018-03-26T09:22:40.443Z,20.90
2018-03-26T09:25:08.039Z,19.30
2018-03-26T09:27:35.620Z,20.13
2018-03-26T09:30:04.040Z,22.50
2018-03-26T09:32:31.643Z,24.23
2018-03-26T09:34:59.257Z,23.90
2018-03-26T09:37:26.853Z,22.20
2018-03-26T09:39:54.453Z,20.73
2018-03-26T09:42:22.055Z,21.33
2018-03-26T09:44:49.675Z,21.60
2018-03-26T09:47:17.257Z,23.27
2018-03-26T09:49:44.895Z,22.27
2018-03-26T09:52:12.488Z,23.67
2018-03-26T09:54:40.088Z,25.07
2018-03-26T09:57:07.703Z,25.90
2018-03-26T09:59:35.319Z,29.30
2018-03-26T10:02:03.660Z,27.30
2018-03-26T10:04:31.256Z,25.70
2018-03-26T10:06:59.617Z,26.47
2018-03-26T10:09:28.009Z,27.97
2018-03-26T10:11:56.367Z,26.17
2018-03-26T10:14:23.973Z,27.00
2018-03-26T10:16:51.564Z,27.53
2018-03-26T10:19:19.167Z,24.90
2018-03-26T10:21:47.542Z,29.00
2018-03-26T10:24:15.899Z,22.97
2018-03-26T10:26:43.512Z,24.10
2018-03-26T10:29:11.098Z,21.67
2018-03-26T10:31:38.706Z,23.53
2018-03-26T10:34:06.290Z,28.30
2018-03-26T10:36:33.908Z,27.27
2018-03-26T10:39:02.277Z,27.87
2018-03-26T10:41:29.905Z,27.33
2018-03-26T10:43:57.489Z,28.30
2018-03-26T10:46:25.120Z,29.70
2018-03-26T10:48:52.706Z,31.60
2018-03-26T10:51:20.281Z,31.63
2018-03-26T10:53:47.900Z,31.70
2018-03-26T10:56:15.489Z,31.73
2018-03-26T10:58:43.104Z,32.43
2018-03-26T11:01:10.900Z,34.33
2018-03-26T11:03:38.531Z,35.90
2018-03-26T11:06:06.113Z,37.80
2018-03-26T11:08:33.702Z,40.87
2018-03-26T11:11:01.317Z,38.17
2018-03-26T11:13:28.959Z,40.47
2018-03-26T11:15:56.542Z,36.97
2018-03-26T11:18:24.137Z,39.43
2018-03-26T11:20:51.733Z,40.53
2018-03-26T11:23:19.365Z,40.37
2018-03-26T11:25:46.968Z,38.73
2018-03-26T11:28:14.544Z,34.27
2018-03-26T11:30:42.912Z,31.93
2018-03-26T11:33:10.517Z,29.80
2018-03-26T11:35:38.134Z,29.60
2018-03-26T11:38:05.729Z,29.27
2018-03-26T11:40:33.346Z,30.63
2018-03-26T11:43:00.935Z,30.67
2018-03-26T11:45:28.550Z,30.00
2018-03-26T11:47:56.132Z,28.23
2018-03-26T11:50:23.737Z,29.30
2018-03-26T11:52:51.314Z,29.50
2018-03-26T11:55:19.703Z,31.27
2018-03-26T11:57:47.343Z,28.03
2018-03-26T12:00:15.013Z,30.90
2018-03-26T12:02:43.367Z,28.07
2018-03-26T12:05:10.963Z,33.27
2018-03-26T12:07:38.585Z,32.13
2018-03-26T12:10:06.165Z,29.90
2018-03-26T12:12:34.539Z,31.20
2018-03-26T12:15:02.124Z,32.27
2018-03-26T12:17:29.747Z,31.70
2018-03-26T12:23:30.082Z,34.10
2018-03-26T12:25:57.665Z,33.70
2018-03-26T12:28:37.097Z,35.80
2018-03-26T12:31:04.706Z,37.27
2018-03-26T12:33:32.329Z,36.57
2018-03-26T12:36:00.691Z,39.20
2018-03-26T12:38:28.314Z,37.87
2018-03-26T12:40:56.734Z,34.50
2018-03-26T12:43:24.341Z,34.83
2018-03-26T12:46:03.565Z,38.07
2018-03-26T12:48:31.167Z,33.90
2018-03-26T12:51:10.719Z,35.33
2018-03-26T12:53:38.320Z,33.53
2018-03-26T12:56:05.959Z,37.67
2018-03-26T12:58:45.025Z,37.57
2018-03-26T13:01:24.668Z,30.83
2018-03-26T13:03:52.265Z,35.03
2018-03-26T13:06:19.850Z,34.10
2018-03-26T13:08:48.215Z,32.40
2018-03-26T13:11:15.791Z,33.60
2018-03-26T13:13:44.209Z,34.97
2018-03-26T13:16:11.780Z,33.53
2018-03-26T13:18:39.395Z,31.97
2018-03-26T13:21:06.996Z,33.13
2018-03-26T13:23:34.602Z,32.33
2018-03-26T13:26:02.964Z,33.57
2018-03-26T13:28:30.570Z,33.77
2018-03-26T13:30:58.185Z,33.20
2018-03-26T13:33:25.764Z,31.40
2018-03-26T13:35:54.132Z,29.70
2018-03-26T13:38:22.499Z,31.27
2018-03-26T13:40:50.102Z,32.63
2018-03-26T13:43:17.685Z,28.60
2018-03-26T13:45:45.288Z,27.43
2018-03-26T13:48:13.653Z,26.83
2018-03-26T13:50:41.268Z,26.90
2018-03-26T13:53:08.869Z,27.47
2018-03-26T13:55:36.512Z,28.97
2018-03-26T13:58:04.102Z,27.33
2018-03-26T14:00:31.685Z,22.80
2018-03-26T14:02:59.295Z,24.20
2018-03-26T14:05:26.872Z,20.87
2018-03-26T14:07:54.486Z,18.60
2018-03-26T14:10:33.939Z,18.27
2018-03-26T14:13:13.377Z,18.17
2018-03-26T14:15:53.627Z,19.50
2018-03-26T14:18:21.236Z,21.90
2018-03-26T14:20:49.595Z,20.83
2018-03-26T14:23:17.227Z,19.27
2018-03-26T14:25:44.835Z,22.20
2018-03-26T14:28:13.238Z,23.40
2018-03-26T14:30:40.842Z,20.47
2018-03-26T14:33:08.444Z,20.30
2018-03-26T14:35:44.056Z,21.37
2018-03-26T14:38:11.669Z,20.13
2018-03-26T14:40:39.257Z,19.47
2018-03-26T14:43:06.891Z,18.17
2018-03-26T14:45:34.497Z,19.17
2018-03-26T14:48:02.196Z,16.40
2018-03-26T14:50:29.822Z,17.23
2018-03-26T14:52:57.433Z,16.97
2018-03-26T14:55:25.108Z,16.90
2018-03-26T14:57:53.439Z,17.50
2018-03-26T15:00:21.835Z,16.70
2018-03-26T15:02:49.468Z,17.33
2018-03-26T15:05:17.063Z,15.77
2018-03-26T15:07:44.668Z,15.30
2018-03-26T15:10:12.293Z,13.73
2018-03-26T15:12:39.902Z,14.27
2018-03-26T15:15:07.516Z,14.10
2018-03-26T15:17:35.110Z,12.70
2018-03-26T15:20:02.712Z,13.07
2018-03-26T15:22:30.336Z,20.50
2018-03-26T15:24:57.964Z,13.40
2018-03-26T15:27:25.555Z,11.67
2018-03-26T15:29:53.145Z,12.20
2018-03-26T15:32:21.535Z,11.90
2018-03-26T15:34:49.139Z,10.93
2018-03-26T15:37:16.741Z,11.33
2018-03-26T15:39:45.095Z,11.83
2018-03-26T15:42:12.696Z,9.53
2018-03-26T15:44:40.281Z,10.33
2018-03-26T15:47:07.887Z,9.23
2018-03-26T15:49:35.482Z,10.33
2018-03-26T15:52:03.095Z,8.20
2018-03-26T15:54:30.678Z,8.80
2018-03-26T15:56:59.081Z,12.10
2018-03-26T15:59:26.686Z,15.40
2018-03-26T16:01:53.826Z,10.50
2018-03-26T16:04:21.429Z,10.20
2018-03-26T16:06:49.774Z,9.90
2018-03-26T16:09:17.368Z,8.90
2018-03-26T16:11:45.716Z,7.80
2018-03-26T16:14:13.347Z,7.27
2018-03-26T16:16:40.928Z,7.00
2018-03-26T16:19:08.532Z,6.53
2018-03-26T16:21:36.122Z,5.80
2018-03-26T16:24:03.729Z,6.50
2018-03-26T16:26:32.084Z,5.73
2018-03-26T16:28:59.679Z,5.87
2018-03-26T16:31:28.031Z,7.77
2018-03-26T16:33:55.634Z,6.37
2018-03-26T16:36:23.240Z,5.50
2018-03-26T16:38:50.860Z,7.23
2018-03-26T16:41:30.333Z,5.47
2018-03-26T16:43:57.968Z,5.53
2018-03-26T16:46:25.597Z,5.13
2018-03-26T16:48:53.191Z,4.77
2018-03-26T16:51:20.789Z,4.60
2018-03-26T16:53:48.384Z,4.80
2018-03-26T16:56:16.008Z,4.87
2018-03-26T16:58:43.612Z,5.13
2018-03-26T17:01:11.217Z,5.00
2018-03-26T17:03:38.841Z,4.93
2018-03-26T17:06:06.447Z,5.60
2018-03-26T17:08:34.040Z,5.03
2018-03-26T17:11:01.704Z,5.10
2018-03-26T17:13:29.293Z,5.57
2018-03-26T17:15:56.896Z,5.47
2018-03-26T17:18:24.469Z,7.70
2018-03-26T17:20:52.884Z,5.63
2018-03-26T17:23:20.473Z,6.40
2018-03-26T17:25:48.067Z,7.60
2018-03-26T17:28:16.451Z,6.17
2018-03-26T17:30:44.799Z,6.53
2018-03-26T17:33:12.420Z,6.70
2018-03-26T17:35:40.009Z,6.07
2018-03-26T17:38:07.610Z,6.73
2018-03-26T17:40:35.198Z,6.90
2018-03-26T17:43:02.821Z,6.20
2018-03-26T17:45:31.197Z,8.20
2018-03-26T17:47:59.592Z,7.03
2018-03-26T17:50:27.164Z,8.20
2018-03-26T17:52:54.786Z,7.37
2018-03-26T17:55:23.168Z,8.07
2018-03-26T17:57:51.559Z,7.73
2018-03-26T18:00:19.143Z,8.87
2018-03-26T18:02:46.729Z,8.50
2018-03-26T18:05:14.343Z,7.70
2018-03-26T18:07:41.937Z,6.80
2018-03-26T18:10:10.371Z,8.07
2018-03-26T18:12:37.915Z,6.90
2018-03-26T18:15:05.538Z,8.80
2018-03-26T18:17:33.114Z,8.23
2018-03-26T18:20:00.716Z,8.07
2018-03-26T18:22:28.296Z,8.87
2018-03-26T18:24:55.904Z,8.00
2018-03-26T18:27:23.484Z,8.33
2018-03-26T18:29:51.844Z,8.77
2018-03-26T18:32:19.437Z,9.50
2018-03-26T18:34:47.069Z,8.60
2018-03-26T18:37:14.667Z,8.77
2018-03-26T18:39:42.245Z,8.00
2018-03-26T18:42:09.839Z,7.97
2018-03-26T18:44:37.448Z,7.77
2018-03-26T18:47:05.067Z,8.30
2018-03-26T18:49:32.649Z,8.33
2018-03-26T18:52:01.031Z,8.07
2018-03-26T18:54:28.644Z,8.17
2018-03-26T18:56:56.291Z,7.77
2018-03-26T18:59:23.836Z,11.60
2018-03-26T19:01:51.453Z,9.83
2018-03-26T19:04:19.813Z,8.90
2018-03-26T19:06:47.458Z,9.80
2018-03-26T19:09:15.047Z,8.47
2018-03-26T19:11:43.394Z,9.73
2018-03-26T19:14:11.084Z,10.23
2018-03-26T19:16:39.432Z,8.83
2018-03-26T19:19:07.150Z,10.00
2018-03-26T19:21:34.728Z,9.00
2018-03-26T19:24:02.362Z,10.80
2018-03-26T19:26:30.700Z,9.70
2018-03-26T19:28:58.292Z,9.37
2018-03-26T19:31:26.637Z,10.30
2018-03-26T19:33:54.232Z,9.73
2018-03-26T19:36:22.569Z,9.00
2018-03-26T19:38:50.184Z,9.57
2018-03-26T19:41:17.751Z,8.50
2018-03-26T19:43:45.383Z,8.93
2018-03-26T19:46:13.750Z,9.57
2018-03-26T19:48:42.113Z,11.10
2018-03-26T19:51:09.726Z,7.97
2018-03-26T19:53:37.305Z,9.03
2018-03-26T19:56:04.900Z,9.20
2018-03-26T19:58:32.472Z,9.83
2018-03-26T20:01:00.855Z,8.80
2018-03-26T20:03:29.261Z,9.47
2018-03-26T20:05:56.862Z,10.10
2018-03-26T20:08:24.449Z,10.20
2018-03-26T20:10:52.814Z,9.73
2018-03-26T20:13:20.408Z,10.40
2018-03-26T20:15:48.022Z,13.10
2018-03-26T20:18:15.618Z,9.73
2018-03-26T20:20:44.024Z,10.00
2018-03-26T20:23:11.744Z,9.47
2018-03-26T20:25:39.309Z,9.33
2018-03-26T20:28:07.668Z,7.83
2018-03-26T20:30:35.264Z,10.90
2018-03-26T20:33:02.870Z,9.83
2018-03-26T20:35:30.446Z,10.10
2018-03-26T20:37:58.056Z,8.77
2018-03-26T20:40:25.664Z,9.23
2018-03-26T20:42:53.298Z,10.03
2018-03-26T20:45:20.892Z,9.07
2018-03-26T20:47:49.275Z,11.10
2018-03-26T20:50:17.651Z,11.43
2018-03-26T20:52:45.259Z,10.67
2018-03-26T20:55:12.893Z,10.13
2018-03-26T20:57:40.503Z,10.30
2018-03-26T21:00:08.134Z,10.87
2018-03-26T21:02:35.744Z,11.20
2018-03-26T21:05:03.367Z,8.73
2018-03-26T21:07:30.967Z,10.23
2018-03-26T21:09:58.562Z,10.37
2018-03-26T21:12:26.141Z,10.43
2018-03-26T21:14:53.745Z,11.23
2018-03-26T21:17:21.319Z,11.37
2018-03-26T21:19:49.699Z,11.07
2018-03-26T21:22:18.048Z,10.63
2018-03-26T21:24:45.644Z,12.00
2018-03-26T21:27:14.009Z,11.43
2018-03-26T21:29:42.372Z,10.20
2018-03-26T21:32:10.014Z,9.70
2018-03-26T21:34:38.356Z,11.30
2018-03-26T21:37:05.971Z,10.87
2018-03-26T21:39:33.539Z,11.13
2018-03-26T21:42:01.146Z,10.60
2018-03-26T21:44:28.750Z,10.30
2018-03-26T21:46:56.363Z,10.50
2018-03-26T21:49:23.943Z,10.40
2018-03-26T21:51:51.571Z,11.50
2018-03-26T21:54:19.159Z,11.77
2018-03-26T21:56:46.753Z,9.80
2018-03-26T21:59:14.337Z,10.70
2018-03-26T22:01:41.948Z,11.17
2018-03-26T22:04:09.544Z,11.23
2018-03-26T22:06:37.904Z,10.53
2018-03-26T22:09:05.529Z,11.90
2018-03-26T22:11:33.143Z,10.13
2018-03-26T22:14:01.512Z,9.30
2018-03-26T22:16:29.858Z,9.80
2018-03-26T22:18:57.471Z,11.10
2018-03-26T22:21:25.051Z,11.47
2018-03-26T22:23:52.644Z,12.13
2018-03-26T22:26:20.242Z,10.73
2018-03-26T22:28:47.877Z,10.33
2018-03-26T22:31:15.468Z,11.23
2018-03-26T22:33:43.091Z,10.37
2018-03-26T22:36:10.698Z,11.07
2018-03-26T22:38:38.361Z,11.70
2018-03-26T22:41:05.968Z,11.13
2018-03-26T22:43:33.546Z,10.93
2018-03-26T22:46:01.152Z,11.27
2018-03-26T22:48:28.751Z,11.97
2018-03-26T22:50:56.377Z,10.50
2018-03-26T22:53:23.968Z,9.97
2018-03-26T22:55:51.566Z,8.83
2018-03-26T22:58:19.169Z,10.47
2018-03-26T23:00:46.856Z,10.30
2018-03-26T23:03:14.459Z,12.23
2018-03-26T23:05:42.062Z,18.00
2018-03-26T23:08:09.680Z,16.23
2018-03-26T23:10:37.256Z,18.10
2018-03-26T23:13:04.853Z,13.70
2018-03-26T23:15:32.461Z,21.60
2018-03-26T23:18:00.095Z,17.50
2018-03-26T23:20:28.459Z,13.90
2018-03-26T23:22:56.081Z,11.00
2018-03-26T23:25:23.693Z,10.53
2018-03-26T23:27:52.062Z,11.93
2018-03-26T23:30:20.427Z,12.33
2018-03-26T23:32:48.024Z,11.23
2018-03-26T23:35:15.628Z,12.60
2018-03-26T23:37:43.230Z,9.83
2018-03-26T23:40:11.579Z,16.00
2018-03-26T23:42:39.204Z,10.40
2018-03-26T23:45:06.794Z,11.40
2018-03-26T23:47:34.432Z,11.37
2018-03-26T23:50:02.025Z,11.93
2018-03-26T23:52:29.624Z,10.53
2018-03-26T23:54:57.247Z,11.33
2018-03-26T23:57:24.843Z,11.00
2018-03-26T23:59:52.485Z,11.80
